sensor_id;sensor_type;location;lat;lon;timestamp;P1;durP1;ratioP1;P2;durP2;ratioP2
50781;SDS011;36749;37.428;-121.972;2023-09-18T00:00:48;10.27;;;4.45;;
50781;SDS011;36749;37.428;-121.972;2023-09-18T00:03:18;11.13;;;3.90;;
50781;SDS011;36749;37.428;-121.972;2023-09-18T00:05:48;11.52;;;4.32;;
50781;SDS011;36749;37.428;-121.972;2023-09-18T00:08:15;12.65;;;4.40;;
50781;SDS011;36749;37.428;-121.972;2023-09-18T00:10:42;9.88;;;4.47;;
50781;SDS011;36749;37.428;-121.972;2023-09-18T00:13:12;11.55;;;4.55;;
50781;SDS011;36749;37.428;-121.972;2023-09-18T00:15:39;9.93;;;4.35;;
50781;SDS011;36749;37.428;-121.972;2023-09-18T00:18:06;9.55;;;4.20;;
50781;SDS011;36749;37.428;-121.972;2023-09-18T00:20:33;11.32;;;4.45;;
50781;SDS011;36749;37.428;-121.972;2023-09-18T00:23:00;13.68;;;4.35;;
50781;SDS011;36749;37.428;-121.972;2023-09-18T00:25:26;8.65;;;4.00;;
50781;SDS011;36749;37.428;-121.972;2023-09-18T00:27:52;9.25;;;3.90;;
50781;SDS011;36749;37.428;-121.972;2023-09-18T00:30:19;10.48;;;4.28;;
50781;SDS011;36749;37.428;-121.972;2023-09-18T00:32:45;7.15;;;3.80;;
50781;SDS011;36749;37.428;-121.972;2023-09-18T00:35:12;9.10;;;4.22;;
50781;SDS011;36749;37.428;-121.972;2023-09-18T00:37:38;7.85;;;3.63;;
50781;SDS011;36749;37.428;-121.972;2023-09-18T00:40:05;8.68;;;3.72;;
50781;SDS011;36749;37.428;-121.972;2023-09-18T00:42:32;6.45;;;3.70;;
50781;SDS011;36749;37.428;-121.972;2023-09-18T00:44:59;7.07;;;3.85;;
50781;SDS011;36749;37.428;-121.972;2023-09-18T00:47:25;7.43;;;3.97;;
50781;SDS011;36749;37.428;-121.972;2023-09-18T00:49:51;8.55;;;3.92;;
50781;SDS011;36749;37.428;-121.972;2023-09-18T00:52:18;12.60;;;4.25;;
50781;SDS011;36749;37.428;-121.972;2023-09-18T00:54:45;6.80;;;4.13;;
50781;SDS011;36749;37.428;-121.972;2023-09-18T00:57:13;7.28;;;3.88;;
50781;SDS011;36749;37.428;-121.972;2023-09-18T00:59:40;9.13;;;3.92;;
50781;SDS011;36749;37.428;-121.972;2023-09-18T01:02:06;6.80;;;3.60;;
50781;SDS011;36749;37.428;-121.972;2023-09-18T01:04:33;9.02;;;4.18;;
50781;SDS011;36749;37.428;-121.972;2023-09-18T01:07:00;4.72;;;3.55;;
50781;SDS011;36749;37.428;-121.972;2023-09-18T01:09:32;5.95;;;3.72;;
50781;SDS011;36749;37.428;-121.972;2023-09-18T01:12:22;7.25;;;4.18;;
50781;SDS011;36749;37.428;-121.972;2023-09-18T01:17:48;7.78;;;3.80;;
50781;SDS011;36749;37.428;-121.972;2023-09-18T01:20:14;5.93;;;3.30;;
50781;SDS011;36749;37.428;-121.972;2023-09-18T01:22:41;6.18;;;3.70;;
50781;SDS011;36749;37.428;-121.972;2023-09-18T01:25:08;6.55;;;3.67;;
50781;SDS011;36749;37.428;-121.972;2023-09-18T01:27:35;9.57;;;3.45;;
50781;SDS011;36749;37.428;-121.972;2023-09-18T01:30:02;7.78;;;3.65;;
50781;SDS011;36749;37.428;-121.972;2023-09-18T01:32:29;6.50;;;3.55;;
50781;SDS011;36749;37.428;-121.972;2023-09-18T01:34:57;7.78;;;3.72;;
50781;SDS011;36749;37.428;-121.972;2023-09-18T01:37:26;8.38;;;3.97;;
50781;SDS011;36749;37.428;-121.972;2023-09-18T01:39:54;12.02;;;4.38;;
50781;SDS011;36749;37.428;-121.972;2023-09-18T01:42:24;19.38;;;4.35;;
50781;SDS011;36749;37.428;-121.972;2023-09-18T01:44:53;7.28;;;3.92;;
50781;SDS011;36749;37.428;-121.972;2023-09-18T01:47:20;9.80;;;3.72;;
50781;SDS011;36749;37.428;-121.972;2023-09-18T01:49:48;8.40;;;3.78;;
50781;SDS011;36749;37.428;-121.972;2023-09-18T01:52:15;6.07;;;3.65;;
50781;SDS011;36749;37.428;-121.972;2023-09-18T01:54:42;12.05;;;3.42;;
50781;SDS011;36749;37.428;-121.972;2023-09-18T01:57:08;7.25;;;3.53;;
50781;SDS011;36749;37.428;-121.972;2023-09-18T01:59:34;9.57;;;3.92;;
50781;SDS011;36749;37.428;-121.972;2023-09-18T02:02:01;7.22;;;3.80;;
50781;SDS011;36749;37.428;-121.972;2023-09-18T02:04:32;7.60;;;3.47;;
50781;SDS011;36749;37.428;-121.972;2023-09-18T02:06:58;6.53;;;3.70;;
50781;SDS011;36749;37.428;-121.972;2023-09-18T02:09:24;17.83;;;5.13;;
50781;SDS011;36749;37.428;-121.972;2023-09-18T02:11:50;8.60;;;3.80;;
50781;SDS011;36749;37.428;-121.972;2023-09-18T02:14:17;8.77;;;3.80;;
50781;SDS011;36749;37.428;-121.972;2023-09-18T02:16:43;13.65;;;4.63;;
50781;SDS011;36749;37.428;-121.972;2023-09-18T02:19:11;15.98;;;4.68;;
50781;SDS011;36749;37.428;-121.972;2023-09-18T02:21:42;9.68;;;3.80;;
50781;SDS011;36749;37.428;-121.972;2023-09-18T02:24:09;11.50;;;4.40;;
50781;SDS011;36749;37.428;-121.972;2023-09-18T02:26:35;28.95;;;4.82;;
50781;SDS011;36749;37.428;-121.972;2023-09-18T02:29:10;11.88;;;3.92;;
50781;SDS011;36749;37.428;-121.972;2023-09-18T02:31:39;10.07;;;3.83;;
50781;SDS011;36749;37.428;-121.972;2023-09-18T02:34:05;6.40;;;3.45;;
50781;SDS011;36749;37.428;-121.972;2023-09-18T02:36:32;6.93;;;3.65;;
50781;SDS011;36749;37.428;-121.972;2023-09-18T02:38:59;6.85;;;3.47;;
50781;SDS011;36749;37.428;-121.972;2023-09-18T02:41:25;6.72;;;3.28;;
50781;SDS011;36749;37.428;-121.972;2023-09-18T02:43:51;8.75;;;4.57;;
50781;SDS011;36749;37.428;-121.972;2023-09-18T02:46:17;8.38;;;4.07;;
50781;SDS011;36749;37.428;-121.972;2023-09-18T02:48:44;8.52;;;4.18;;
50781;SDS011;36749;37.428;-121.972;2023-09-18T02:51:10;8.10;;;4.30;;
50781;SDS011;36749;37.428;-121.972;2023-09-18T02:53:36;8.00;;;4.18;;
50781;SDS011;36749;37.428;-121.972;2023-09-18T02:56:02;9.68;;;4.90;;
50781;SDS011;36749;37.428;-121.972;2023-09-18T02:58:29;9.80;;;4.00;;
50781;SDS011;36749;37.428;-121.972;2023-09-18T03:00:56;8.35;;;4.00;;
50781;SDS011;36749;37.428;-121.972;2023-09-18T03:03:23;7.18;;;4.70;;
50781;SDS011;36749;37.428;-121.972;2023-09-18T03:05:50;10.07;;;4.70;;
50781;SDS011;36749;37.428;-121.972;2023-09-18T03:08:16;9.77;;;5.05;;
50781;SDS011;36749;37.428;-121.972;2023-09-18T03:10:43;10.30;;;5.18;;
50781;SDS011;36749;37.428;-121.972;2023-09-18T03:13:10;9.25;;;5.20;;
50781;SDS011;36749;37.428;-121.972;2023-09-18T03:15:37;8.07;;;4.53;;
50781;SDS011;36749;37.428;-121.972;2023-09-18T03:18:03;12.85;;;5.90;;
50781;SDS011;36749;37.428;-121.972;2023-09-18T03:20:30;9.18;;;4.85;;
50781;SDS011;36749;37.428;-121.972;2023-09-18T03:22:57;13.65;;;5.20;;
50781;SDS011;36749;37.428;-121.972;2023-09-18T03:25:25;10.57;;;5.50;;
50781;SDS011;36749;37.428;-121.972;2023-09-18T03:27:52;10.18;;;5.05;;
50781;SDS011;36749;37.428;-121.972;2023-09-18T03:30:19;9.68;;;5.15;;
50781;SDS011;36749;37.428;-121.972;2023-09-18T03:32:47;10.15;;;5.13;;
50781;SDS011;36749;37.428;-121.972;2023-09-18T03:35:16;18.73;;;6.07;;
50781;SDS011;36749;37.428;-121.972;2023-09-18T03:37:47;9.35;;;5.18;;
50781;SDS011;36749;37.428;-121.972;2023-09-18T03:40:17;10.02;;;5.50;;
50781;SDS011;36749;37.428;-121.972;2023-09-18T03:42:47;11.23;;;4.88;;
50781;SDS011;36749;37.428;-121.972;2023-09-18T03:45:14;9.73;;;4.55;;
50781;SDS011;36749;37.428;-121.972;2023-09-18T03:47:42;9.02;;;4.95;;
50781;SDS011;36749;37.428;-121.972;2023-09-18T03:50:09;7.85;;;5.07;;
50781;SDS011;36749;37.428;-121.972;2023-09-18T03:52:36;9.55;;;5.32;;
50781;SDS011;36749;37.428;-121.972;2023-09-18T03:55:03;7.82;;;4.53;;
50781;SDS011;36749;37.428;-121.972;2023-09-18T03:57:30;9.90;;;5.60;;
50781;SDS011;36749;37.428;-121.972;2023-09-18T03:59:56;11.60;;;5.68;;
50781;SDS011;36749;37.428;-121.972;2023-09-18T04:02:24;9.48;;;4.88;;
50781;SDS011;36749;37.428;-121.972;2023-09-18T04:04:51;14.23;;;5.82;;
50781;SDS011;36749;37.428;-121.972;2023-09-18T04:07:18;13.75;;;5.63;;
50781;SDS011;36749;37.428;-121.972;2023-09-18T04:09:45;10.73;;;5.70;;
50781;SDS011;36749;37.428;-121.972;2023-09-18T04:12:11;9.05;;;5.72;;
50781;SDS011;36749;37.428;-121.972;2023-09-18T04:14:38;9.68;;;5.22;;
50781;SDS011;36749;37.428;-121.972;2023-09-18T04:17:04;11.50;;;5.85;;
50781;SDS011;36749;37.428;-121.972;2023-09-18T04:19:30;9.27;;;5.45;;
50781;SDS011;36749;37.428;-121.972;2023-09-18T04:21:57;10.32;;;5.70;;
50781;SDS011;36749;37.428;-121.972;2023-09-18T04:24:23;9.88;;;5.18;;
50781;SDS011;36749;37.428;-121.972;2023-09-18T04:26:50;13.45;;;5.40;;
50781;SDS011;36749;37.428;-121.972;2023-09-18T04:29:19;11.55;;;6.15;;
50781;SDS011;36749;37.428;-121.972;2023-09-18T04:31:45;11.05;;;6.05;;
50781;SDS011;36749;37.428;-121.972;2023-09-18T04:34:12;9.30;;;5.82;;
50781;SDS011;36749;37.428;-121.972;2023-09-18T04:36:39;11.50;;;5.53;;
50781;SDS011;36749;37.428;-121.972;2023-09-18T04:39:05;11.07;;;5.75;;
50781;SDS011;36749;37.428;-121.972;2023-09-18T04:41:32;9.15;;;5.70;;
50781;SDS011;36749;37.428;-121.972;2023-09-18T04:43:59;10.85;;;6.20;;
50781;SDS011;36749;37.428;-121.972;2023-09-18T04:46:25;9.55;;;5.68;;
50781;SDS011;36749;37.428;-121.972;2023-09-18T04:48:51;12.15;;;6.15;;
50781;SDS011;36749;37.428;-121.972;2023-09-18T04:51:17;12.20;;;5.57;;
50781;SDS011;36749;37.428;-121.972;2023-09-18T04:53:44;8.85;;;5.57;;
50781;SDS011;36749;37.428;-121.972;2023-09-18T04:56:10;9.02;;;5.32;;
50781;SDS011;36749;37.428;-121.972;2023-09-18T04:58:37;10.90;;;5.85;;
50781;SDS011;36749;37.428;-121.972;2023-09-18T05:01:04;12.55;;;5.85;;
50781;SDS011;36749;37.428;-121.972;2023-09-18T05:03:34;10.90;;;5.60;;
50781;SDS011;36749;37.428;-121.972;2023-09-18T05:06:00;9.52;;;5.80;;
50781;SDS011;36749;37.428;-121.972;2023-09-18T05:08:28;11.48;;;5.82;;
50781;SDS011;36749;37.428;-121.972;2023-09-18T05:10:54;11.50;;;6.43;;
50781;SDS011;36749;37.428;-121.972;2023-09-18T05:13:20;8.95;;;6.00;;
50781;SDS011;36749;37.428;-121.972;2023-09-18T05:15:47;13.07;;;6.90;;
50781;SDS011;36749;37.428;-121.972;2023-09-18T05:18:13;10.40;;;5.82;;
50781;SDS011;36749;37.428;-121.972;2023-09-18T05:20:39;11.85;;;6.60;;
50781;SDS011;36749;37.428;-121.972;2023-09-18T05:23:05;8.55;;;5.97;;
50781;SDS011;36749;37.428;-121.972;2023-09-18T05:25:50;11.45;;;7.00;;
50781;SDS011;36749;37.428;-121.972;2023-09-18T05:28:16;11.82;;;6.53;;
50781;SDS011;36749;37.428;-121.972;2023-09-18T05:30:42;15.18;;;6.68;;
50781;SDS011;36749;37.428;-121.972;2023-09-18T05:33:08;13.43;;;7.35;;
50781;SDS011;36749;37.428;-121.972;2023-09-18T05:35:35;13.20;;;6.60;;
50781;SDS011;36749;37.428;-121.972;2023-09-18T05:38:02;12.50;;;6.53;;
50781;SDS011;36749;37.428;-121.972;2023-09-18T05:40:29;13.25;;;7.35;;
50781;SDS011;36749;37.428;-121.972;2023-09-18T05:42:55;11.82;;;6.70;;
50781;SDS011;36749;37.428;-121.972;2023-09-18T05:45:22;15.40;;;7.85;;
50781;SDS011;36749;37.428;-121.972;2023-09-18T05:47:49;12.10;;;6.57;;
50781;SDS011;36749;37.428;-121.972;2023-09-18T05:50:15;12.10;;;6.35;;
50781;SDS011;36749;37.428;-121.972;2023-09-18T05:52:42;10.32;;;7.03;;
50781;SDS011;36749;37.428;-121.972;2023-09-18T05:55:09;11.70;;;6.55;;
50781;SDS011;36749;37.428;-121.972;2023-09-18T05:57:36;12.43;;;6.57;;
50781;SDS011;36749;37.428;-121.972;2023-09-18T06:00:02;13.95;;;7.22;;
50781;SDS011;36749;37.428;-121.972;2023-09-18T06:02:30;12.82;;;6.93;;
50781;SDS011;36749;37.428;-121.972;2023-09-18T06:04:59;11.70;;;6.95;;
50781;SDS011;36749;37.428;-121.972;2023-09-18T06:07:26;12.82;;;7.45;;
50781;SDS011;36749;37.428;-121.972;2023-09-18T06:09:53;11.50;;;7.05;;
50781;SDS011;36749;37.428;-121.972;2023-09-18T06:12:19;12.40;;;7.15;;
50781;SDS011;36749;37.428;-121.972;2023-09-18T06:14:50;11.38;;;6.32;;
50781;SDS011;36749;37.428;-121.972;2023-09-18T06:17:17;12.40;;;7.05;;
50781;SDS011;36749;37.428;-121.972;2023-09-18T06:19:43;9.93;;;6.57;;
50781;SDS011;36749;37.428;-121.972;2023-09-18T06:22:10;11.63;;;7.20;;
50781;SDS011;36749;37.428;-121.972;2023-09-18T06:24:37;12.02;;;7.07;;
50781;SDS011;36749;37.428;-121.972;2023-09-18T06:27:04;11.55;;;6.57;;
50781;SDS011;36749;37.428;-121.972;2023-09-18T06:29:33;14.98;;;7.60;;
50781;SDS011;36749;37.428;-121.972;2023-09-18T06:32:00;11.05;;;6.75;;
50781;SDS011;36749;37.428;-121.972;2023-09-18T06:34:27;13.43;;;6.93;;
50781;SDS011;36749;37.428;-121.972;2023-09-18T06:36:57;14.73;;;7.32;;
50781;SDS011;36749;37.428;-121.972;2023-09-18T06:39:23;11.15;;;6.60;;
50781;SDS011;36749;37.428;-121.972;2023-09-18T06:41:51;10.15;;;6.60;;
50781;SDS011;36749;37.428;-121.972;2023-09-18T06:44:17;10.63;;;7.07;;
50781;SDS011;36749;37.428;-121.972;2023-09-18T06:46:43;12.32;;;6.45;;
50781;SDS011;36749;37.428;-121.972;2023-09-18T06:49:10;11.15;;;7.00;;
50781;SDS011;36749;37.428;-121.972;2023-09-18T06:51:36;10.63;;;6.93;;
50781;SDS011;36749;37.428;-121.972;2023-09-18T06:54:02;14.88;;;7.72;;
50781;SDS011;36749;37.428;-121.972;2023-09-18T06:56:30;10.75;;;6.63;;
50781;SDS011;36749;37.428;-121.972;2023-09-18T06:58:56;11.52;;;6.63;;
50781;SDS011;36749;37.428;-121.972;2023-09-18T07:01:22;15.30;;;6.68;;
50781;SDS011;36749;37.428;-121.972;2023-09-18T07:03:50;13.80;;;7.00;;
50781;SDS011;36749;37.428;-121.972;2023-09-18T07:06:16;11.00;;;6.70;;
50781;SDS011;36749;37.428;-121.972;2023-09-18T07:08:45;13.02;;;6.75;;
50781;SDS011;36749;37.428;-121.972;2023-09-18T07:11:14;14.13;;;7.70;;
50781;SDS011;36749;37.428;-121.972;2023-09-18T07:13:41;12.65;;;6.15;;
50781;SDS011;36749;37.428;-121.972;2023-09-18T07:16:08;12.80;;;7.07;;
50781;SDS011;36749;37.428;-121.972;2023-09-18T07:18:35;13.48;;;6.93;;
50781;SDS011;36749;37.428;-121.972;2023-09-18T07:21:02;12.00;;;7.25;;
50781;SDS011;36749;37.428;-121.972;2023-09-18T07:23:28;11.73;;;6.60;;
50781;SDS011;36749;37.428;-121.972;2023-09-18T07:25:54;18.88;;;7.70;;
50781;SDS011;36749;37.428;-121.972;2023-09-18T07:28:20;11.77;;;6.93;;
50781;SDS011;36749;37.428;-121.972;2023-09-18T07:30:47;12.43;;;6.97;;
50781;SDS011;36749;37.428;-121.972;2023-09-18T07:33:13;11.77;;;6.63;;
50781;SDS011;36749;37.428;-121.972;2023-09-18T07:35:46;11.75;;;6.53;;
50781;SDS011;36749;37.428;-121.972;2023-09-18T07:38:13;15.48;;;7.55;;
50781;SDS011;36749;37.428;-121.972;2023-09-18T07:40:39;13.57;;;7.97;;
50781;SDS011;36749;37.428;-121.972;2023-09-18T07:43:06;14.23;;;7.88;;
50781;SDS011;36749;37.428;-121.972;2023-09-18T07:45:33;12.95;;;7.32;;
50781;SDS011;36749;37.428;-121.972;2023-09-18T07:47:59;11.98;;;7.30;;
50781;SDS011;36749;37.428;-121.972;2023-09-18T07:50:25;14.25;;;7.22;;
50781;SDS011;36749;37.428;-121.972;2023-09-18T07:52:53;13.30;;;7.15;;
50781;SDS011;36749;37.428;-121.972;2023-09-18T07:55:19;13.20;;;7.15;;
50781;SDS011;36749;37.428;-121.972;2023-09-18T07:57:45;14.35;;;7.28;;
50781;SDS011;36749;37.428;-121.972;2023-09-18T08:00:13;10.70;;;6.78;;
50781;SDS011;36749;37.428;-121.972;2023-09-18T08:02:41;15.25;;;8.15;;
50781;SDS011;36749;37.428;-121.972;2023-09-18T08:05:07;13.38;;;7.32;;
50781;SDS011;36749;37.428;-121.972;2023-09-18T08:07:34;12.50;;;7.47;;
50781;SDS011;36749;37.428;-121.972;2023-09-18T08:10:02;12.00;;;6.60;;
50781;SDS011;36749;37.428;-121.972;2023-09-18T08:12:32;10.93;;;6.28;;
50781;SDS011;36749;37.428;-121.972;2023-09-18T08:14:58;14.45;;;7.43;;
50781;SDS011;36749;37.428;-121.972;2023-09-18T08:17:24;12.98;;;7.30;;
50781;SDS011;36749;37.428;-121.972;2023-09-18T08:19:51;15.85;;;7.70;;
50781;SDS011;36749;37.428;-121.972;2023-09-18T08:22:18;14.52;;;7.10;;
50781;SDS011;36749;37.428;-121.972;2023-09-18T08:24:46;14.13;;;6.80;;
50781;SDS011;36749;37.428;-121.972;2023-09-18T08:27:16;11.98;;;6.57;;
50781;SDS011;36749;37.428;-121.972;2023-09-18T08:29:42;10.68;;;6.63;;
50781;SDS011;36749;37.428;-121.972;2023-09-18T08:32:09;13.80;;;7.07;;
50781;SDS011;36749;37.428;-121.972;2023-09-18T08:34:35;12.77;;;7.13;;
50781;SDS011;36749;37.428;-121.972;2023-09-18T08:37:02;12.60;;;6.85;;
50781;SDS011;36749;37.428;-121.972;2023-09-18T08:39:29;13.25;;;7.60;;
50781;SDS011;36749;37.428;-121.972;2023-09-18T08:41:58;12.05;;;7.18;;
50781;SDS011;36749;37.428;-121.972;2023-09-18T08:44:26;12.07;;;7.18;;
50781;SDS011;36749;37.428;-121.972;2023-09-18T08:46:53;12.40;;;6.93;;
50781;SDS011;36749;37.428;-121.972;2023-09-18T08:49:24;13.07;;;7.10;;
50781;SDS011;36749;37.428;-121.972;2023-09-18T08:51:51;12.50;;;7.32;;
50781;SDS011;36749;37.428;-121.972;2023-09-18T08:54:20;12.85;;;7.18;;
50781;SDS011;36749;37.428;-121.972;2023-09-18T08:56:49;16.58;;;7.40;;
50781;SDS011;36749;37.428;-121.972;2023-09-18T08:59:19;14.07;;;7.22;;
50781;SDS011;36749;37.428;-121.972;2023-09-18T09:01:47;11.95;;;6.55;;
50781;SDS011;36749;37.428;-121.972;2023-09-18T09:04:14;12.77;;;7.72;;
50781;SDS011;36749;37.428;-121.972;2023-09-18T09:06:40;14.15;;;6.78;;
50781;SDS011;36749;37.428;-121.972;2023-09-18T09:09:06;13.43;;;7.03;;
50781;SDS011;36749;37.428;-121.972;2023-09-18T09:11:33;14.77;;;6.93;;
50781;SDS011;36749;37.428;-121.972;2023-09-18T09:14:09;14.38;;;7.40;;
50781;SDS011;36749;37.428;-121.972;2023-09-18T09:16:54;11.80;;;6.75;;
50781;SDS011;36749;37.428;-121.972;2023-09-18T09:19:28;14.15;;;7.78;;
50781;SDS011;36749;37.428;-121.972;2023-09-18T09:27:06;12.38;;;7.22;;
50781;SDS011;36749;37.428;-121.972;2023-09-18T09:29:33;11.75;;;7.05;;
50781;SDS011;36749;37.428;-121.972;2023-09-18T09:32:15;14.90;;;7.55;;
50781;SDS011;36749;37.428;-121.972;2023-09-18T09:34:43;12.75;;;7.38;;
50781;SDS011;36749;37.428;-121.972;2023-09-18T09:37:10;13.98;;;7.90;;
50781;SDS011;36749;37.428;-121.972;2023-09-18T09:39:46;11.80;;;6.88;;
50781;SDS011;36749;37.428;-121.972;2023-09-18T09:42:15;13.85;;;8.07;;
50781;SDS011;36749;37.428;-121.972;2023-09-18T09:44:45;13.38;;;7.93;;
50781;SDS011;36749;37.428;-121.972;2023-09-18T09:47:11;14.13;;;7.60;;
50781;SDS011;36749;37.428;-121.972;2023-09-18T09:49:49;12.25;;;7.93;;
50781;SDS011;36749;37.428;-121.972;2023-09-18T09:52:19;16.83;;;7.80;;
50781;SDS011;36749;37.428;-121.972;2023-09-18T09:54:48;13.75;;;7.13;;
50781;SDS011;36749;37.428;-121.972;2023-09-18T09:57:14;16.27;;;7.65;;
50781;SDS011;36749;37.428;-121.972;2023-09-18T09:59:40;14.20;;;7.90;;
50781;SDS011;36749;37.428;-121.972;2023-09-18T10:02:10;13.18;;;6.97;;
50781;SDS011;36749;37.428;-121.972;2023-09-18T10:04:40;13.60;;;8.18;;
50781;SDS011;36749;37.428;-121.972;2023-09-18T10:07:08;14.77;;;8.55;;
50781;SDS011;36749;37.428;-121.972;2023-09-18T10:09:36;15.18;;;7.65;;
50781;SDS011;36749;37.428;-121.972;2023-09-18T10:12:10;15.20;;;8.95;;
50781;SDS011;36749;37.428;-121.972;2023-09-18T10:14:37;13.50;;;8.00;;
50781;SDS011;36749;37.428;-121.972;2023-09-18T10:17:09;14.05;;;8.13;;
50781;SDS011;36749;37.428;-121.972;2023-09-18T10:24:59;13.45;;;8.23;;
50781;SDS011;36749;37.428;-121.972;2023-09-18T10:27:32;14.73;;;7.43;;
50781;SDS011;36749;37.428;-121.972;2023-09-18T10:29:59;15.13;;;8.77;;
50781;SDS011;36749;37.428;-121.972;2023-09-18T10:32:31;13.35;;;8.45;;
50781;SDS011;36749;37.428;-121.972;2023-09-18T10:34:58;13.25;;;8.48;;
50781;SDS011;36749;37.428;-121.972;2023-09-18T10:37:25;14.57;;;7.80;;
50781;SDS011;36749;37.428;-121.972;2023-09-18T10:39:53;16.25;;;8.13;;
50781;SDS011;36749;37.428;-121.972;2023-09-18T10:42:20;12.00;;;7.93;;
50781;SDS011;36749;37.428;-121.972;2023-09-18T10:44:47;12.63;;;7.80;;
50781;SDS011;36749;37.428;-121.972;2023-09-18T10:47:14;16.42;;;8.38;;
50781;SDS011;36749;37.428;-121.972;2023-09-18T10:49:40;13.20;;;7.80;;
50781;SDS011;36749;37.428;-121.972;2023-09-18T10:52:10;14.20;;;8.30;;
50781;SDS011;36749;37.428;-121.972;2023-09-18T10:54:38;14.93;;;8.60;;
50781;SDS011;36749;37.428;-121.972;2023-09-18T10:57:05;12.40;;;7.25;;
50781;SDS011;36749;37.428;-121.972;2023-09-18T10:59:31;15.00;;;8.38;;
50781;SDS011;36749;37.428;-121.972;2023-09-18T11:02:02;15.38;;;8.52;;
50781;SDS011;36749;37.428;-121.972;2023-09-18T11:04:32;14.20;;;8.20;;
50781;SDS011;36749;37.428;-121.972;2023-09-18T11:09:28;12.73;;;7.82;;
50781;SDS011;36749;37.428;-121.972;2023-09-18T11:14:23;15.80;;;8.73;;
50781;SDS011;36749;37.428;-121.972;2023-09-18T11:22:49;17.15;;;10.05;;
50781;SDS011;36749;37.428;-121.972;2023-09-18T11:25:28;14.35;;;9.18;;
50781;SDS011;36749;37.428;-121.972;2023-09-18T11:28:24;17.73;;;10.38;;
50781;SDS011;36749;37.428;-121.972;2023-09-18T11:30:54;16.88;;;8.93;;
50781;SDS011;36749;37.428;-121.972;2023-09-18T11:33:33;15.35;;;9.18;;
50781;SDS011;36749;37.428;-121.972;2023-09-18T11:36:03;15.13;;;9.27;;
50781;SDS011;36749;37.428;-121.972;2023-09-18T11:38:52;13.50;;;8.27;;
50781;SDS011;36749;37.428;-121.972;2023-09-18T11:41:22;15.27;;;8.80;;
50781;SDS011;36749;37.428;-121.972;2023-09-18T11:46:45;15.20;;;8.32;;
50781;SDS011;36749;37.428;-121.972;2023-09-18T11:49:19;14.10;;;8.00;;
50781;SDS011;36749;37.428;-121.972;2023-09-18T11:51:47;12.30;;;7.25;;
50781;SDS011;36749;37.428;-121.972;2023-09-18T11:54:15;14.95;;;7.85;;
50781;SDS011;36749;37.428;-121.972;2023-09-18T11:56:42;11.65;;;6.97;;
50781;SDS011;36749;37.428;-121.972;2023-09-18T11:59:08;15.20;;;7.80;;
50781;SDS011;36749;37.428;-121.972;2023-09-18T12:01:36;12.73;;;7.20;;
50781;SDS011;36749;37.428;-121.972;2023-09-18T12:04:04;12.93;;;7.15;;
50781;SDS011;36749;37.428;-121.972;2023-09-18T12:06:41;13.00;;;7.47;;
50781;SDS011;36749;37.428;-121.972;2023-09-18T12:09:07;15.43;;;7.67;;
50781;SDS011;36749;37.428;-121.972;2023-09-18T12:11:34;13.30;;;7.90;;
50781;SDS011;36749;37.428;-121.972;2023-09-18T12:14:01;14.85;;;8.32;;
50781;SDS011;36749;37.428;-121.972;2023-09-18T12:16:30;15.45;;;8.38;;
50781;SDS011;36749;37.428;-121.972;2023-09-18T12:19:04;11.95;;;7.30;;
50781;SDS011;36749;37.428;-121.972;2023-09-18T12:21:31;11.90;;;7.18;;
50781;SDS011;36749;37.428;-121.972;2023-09-18T12:23:58;12.10;;;6.95;;
50781;SDS011;36749;37.428;-121.972;2023-09-18T12:26:26;12.52;;;8.05;;
50781;SDS011;36749;37.428;-121.972;2023-09-18T12:28:52;12.75;;;7.25;;
50781;SDS011;36749;37.428;-121.972;2023-09-18T12:31:18;13.82;;;7.35;;
50781;SDS011;36749;37.428;-121.972;2023-09-18T12:33:44;12.93;;;7.35;;
50781;SDS011;36749;37.428;-121.972;2023-09-18T12:36:13;14.35;;;6.32;;
50781;SDS011;36749;37.428;-121.972;2023-09-18T12:38:43;14.70;;;7.60;;
50781;SDS011;36749;37.428;-121.972;2023-09-18T12:41:11;10.65;;;7.13;;
50781;SDS011;36749;37.428;-121.972;2023-09-18T12:43:38;13.65;;;7.47;;
50781;SDS011;36749;37.428;-121.972;2023-09-18T12:46:08;16.10;;;7.82;;
50781;SDS011;36749;37.428;-121.972;2023-09-18T12:48:38;14.43;;;7.43;;
50781;SDS011;36749;37.428;-121.972;2023-09-18T12:51:10;14.00;;;8.02;;
50781;SDS011;36749;37.428;-121.972;2023-09-18T12:53:37;13.55;;;7.93;;
50781;SDS011;36749;37.428;-121.972;2023-09-18T12:56:07;12.90;;;7.82;;
50781;SDS011;36749;37.428;-121.972;2023-09-18T12:58:38;16.25;;;8.25;;
50781;SDS011;36749;37.428;-121.972;2023-09-18T13:01:08;15.13;;;9.75;;
50781;SDS011;36749;37.428;-121.972;2023-09-18T13:03:45;15.13;;;8.85;;
50781;SDS011;36749;37.428;-121.972;2023-09-18T13:06:15;15.15;;;9.45;;
50781;SDS011;36749;37.428;-121.972;2023-09-18T13:08:45;14.15;;;8.63;;
50781;SDS011;36749;37.428;-121.972;2023-09-18T13:11:12;14.20;;;8.75;;
50781;SDS011;36749;37.428;-121.972;2023-09-18T13:13:42;12.40;;;7.88;;
50781;SDS011;36749;37.428;-121.972;2023-09-18T13:16:11;14.23;;;7.90;;
50781;SDS011;36749;37.428;-121.972;2023-09-18T13:18:38;14.32;;;8.18;;
50781;SDS011;36749;37.428;-121.972;2023-09-18T13:21:11;13.15;;;7.43;;
50781;SDS011;36749;37.428;-121.972;2023-09-18T13:23:40;14.68;;;7.70;;
50781;SDS011;36749;37.428;-121.972;2023-09-18T13:26:07;15.10;;;7.30;;
50781;SDS011;36749;37.428;-121.972;2023-09-18T13:28:33;14.50;;;6.78;;
50781;SDS011;36749;37.428;-121.972;2023-09-18T13:31:01;11.95;;;6.47;;
50781;SDS011;36749;37.428;-121.972;2023-09-18T13:33:32;12.45;;;6.22;;
50781;SDS011;36749;37.428;-121.972;2023-09-18T13:35:59;12.82;;;6.13;;
50781;SDS011;36749;37.428;-121.972;2023-09-18T13:38:25;11.75;;;5.72;;
50781;SDS011;36749;37.428;-121.972;2023-09-18T13:40:51;11.73;;;5.72;;
50781;SDS011;36749;37.428;-121.972;2023-09-18T13:43:20;10.23;;;5.70;;
50781;SDS011;36749;37.428;-121.972;2023-09-18T13:45:47;8.63;;;5.53;;
50781;SDS011;36749;37.428;-121.972;2023-09-18T13:48:17;12.50;;;6.10;;
50781;SDS011;36749;37.428;-121.972;2023-09-18T13:50:44;12.68;;;6.72;;
50781;SDS011;36749;37.428;-121.972;2023-09-18T13:53:11;10.48;;;5.35;;
50781;SDS011;36749;37.428;-121.972;2023-09-18T13:55:39;11.52;;;5.95;;
50781;SDS011;36749;37.428;-121.972;2023-09-18T13:58:05;11.40;;;5.72;;
50781;SDS011;36749;37.428;-121.972;2023-09-18T14:00:31;9.65;;;5.15;;
50781;SDS011;36749;37.428;-121.972;2023-09-18T14:02:58;13.98;;;5.88;;
50781;SDS011;36749;37.428;-121.972;2023-09-18T14:05:25;12.15;;;5.68;;
50781;SDS011;36749;37.428;-121.972;2023-09-18T14:07:52;14.18;;;5.90;;
50781;SDS011;36749;37.428;-121.972;2023-09-18T14:10:24;11.93;;;6.35;;
50781;SDS011;36749;37.428;-121.972;2023-09-18T14:12:51;10.85;;;5.85;;
50781;SDS011;36749;37.428;-121.972;2023-09-18T14:15:17;9.57;;;5.78;;
50781;SDS011;36749;37.428;-121.972;2023-09-18T14:17:44;9.68;;;5.40;;
50781;SDS011;36749;37.428;-121.972;2023-09-18T14:20:10;12.45;;;5.57;;
50781;SDS011;36749;37.428;-121.972;2023-09-18T14:22:37;13.02;;;5.78;;
50781;SDS011;36749;37.428;-121.972;2023-09-18T14:25:03;13.25;;;5.68;;
50781;SDS011;36749;37.428;-121.972;2023-09-18T14:27:34;11.98;;;5.97;;
50781;SDS011;36749;37.428;-121.972;2023-09-18T14:30:01;10.30;;;5.97;;